Terminal Aerodrome Forecast
Issued by NWS Cleveland, OH

Home | Current Version | Previous Version | Text Only | Print | Product List | Glossary Off
Versions: 1 2 3 4 5 6 7 8 9 10 11 12

000
FTUS41 KCLE 261135
TAFMFD
TAF
KMFD 261135Z 2612/2712 32003KT P6SM VCSH SCT020 BKN040
      TEMPO 2612/2616 BKN015 BKN020
     FM261600 35008KT P6SM VCSH BKN020 OVC250
     FM261900 35008KT P6SM BKN035
     FM270000 02005KT P6SM SKC=

USA.gov is the U.S. government's official web portal to all federal, state and local government web resources and services.